Capitol Logistics 3262


KMIA
Miami International Airport
Miami, Florida, US
KMCO
Orlando International Airport
Orlando, Florida, US

Activity Log

Date Flight Route Aircraft Duration
11/04/2019 CPX662 HEDLY2 HEDLY J53 PHK BAIRN4 SF34 1h 10m
10/06/2019 CPX662 HEDLY2 HEDLY J53 PHK BAIRN4 SF34 0h 56m
08/24/2019 CPX662 HEDLY2 HEDLY J53 PHK BAIRN4 SF34 1h 06m

Route Details

Aircraft Information
Primary: Saab 340AF
Backup: Not Available
Route Data
Distance: 167nm
Sched. Duration: 1h 25m
Avg. Duration: 0h 91m (-34m)
Times Flown: 3
Recm'd Route: HEDLY2 HEDLY J53 PHK BAIRN4
Planned Altitude: 16,000ft
Origin Wx: KMIA 060753Z 12010KT 8SM SCT015 BKN022 BKN070 OVC190 28/26 A2996 RMK AO2 SLP147 T02780256
Dest. Wx: KMCO 060753Z 16003KT 10SM FEW006 FEW110 OVC250 23/22 A3000 RMK AO2 SLP158 T02330222 $
Notes:

Financial History
Total Freight: 15,555lbs
Average Load: 5,185lbs/flt
Fuel Used: 3,480lbs
Avg. Fuel Used: 1,160lbs/flt
Fuel Expense: $4,280
Avg. Fuel Expense: $1,427
Avg. Fuel Cost: $1.23/lbs
Total Gross Income: $17,422
Pilot Pay: $447
Total Expenses: $2,038
Total Revenue: $10,479
Average Revenue: $5,807.20